Middleport, NY

7:50 AM EDT on October 01, 2016 (GMT -0400)
Middleport | | Change Station

Elev 636 ft 43.16 °N, 78.49 °W | Updated 2 seconds ago

Heavy Rain
Heavy Rain Mist
54.3 °F
Feels Like 54.3 °F
N
0.0
Wind Variable Wind from NNE
Gusts 1.2 mph

Today
High -- | Low -- °F
--% Chance of Precip.
Yesterday
High -- | Low -- °F
Precip. -- in
Pressure 30.16 in
Visibility 2.0 miles
Clouds Few 3200 ft
Mostly Cloudy 4700 ft
Overcast 6000 ft
Dew Point 53 °F
Humidity 94%
Rainfall 0.00 in
Snow Depth Not available.
7:11 AM 6:54 PM
New Moon, 0% visible
SPECI KBUF 011145Z 06006KT 2SM +RA BR FEW032 BKN047 OVC060 13/11 A3016 RMK AO2 RAE15B35 P0003 T01280111
Pressure 30.16 in
Visibility 2.0 miles
Clouds Few 3200 ft
Mostly Cloudy 4700 ft
Overcast 6000 ft
Dew Point 53 °F
Humidity 94%
Rainfall 0.00 in
Snow Depth Not available.
7:11 AM 6:54 PM
New Moon, 0% visible
SPECI KBUF 011145Z 06006KT 2SM +RA BR FEW032 BKN047 OVC060 13/11 A3016 RMK AO2 RAE15B35 P0003 T01280111

10-Day Weather Forecast

Almanac

Astronomy

Oct. 01, 2016 Rise Set
Actual Time
Civil Twilight
Nautical Twilight
Astronomical Twilight
Moon
Length of Visible Light
Length of Day
Tomorrow will be .
, % of the Moon is Illuminated

Today's Extremes

State Highs State Lows

Community

WunderPhotos

Upload Photos

1,942,905 photos uploaded!

WunderBlog® & News

Nearby

Air Quality

  Air Quality AQ Index Pollutant
Not available.

Snow Depth

Station Depth Elevation

Earthquake Activity

City Distance Mag. Time & Date
Minimum magnitude displayed is 2.5.

Coastal Water Temperatures

Place Temperature

Stations

Nearby Weather Stations

Station Location Temp. Windchill Dew Point Humidity Wind Precip. Elev Updated Type
                   

Watches & Warnings

There are currently no watches in effect.